sensor_id;sensor_type;location;lat;lon;timestamp;P1;durP1;ratioP1;P2;durP2;ratioP2
50555;SDS011;36508;52.512;13.450;2023-07-24T00:00:44;4.10;;;3.73;;
50555;SDS011;36508;52.512;13.450;2023-07-24T00:03:10;5.90;;;4.00;;
50555;SDS011;36508;52.512;13.450;2023-07-24T00:05:35;4.63;;;4.30;;
50555;SDS011;36508;52.512;13.450;2023-07-24T00:08:01;3.63;;;3.43;;
50555;SDS011;36508;52.512;13.450;2023-07-24T00:10:31;4.10;;;3.80;;
50555;SDS011;36508;52.512;13.450;2023-07-24T00:12:57;4.97;;;4.57;;
50555;SDS011;36508;52.512;13.450;2023-07-24T00:15:23;4.50;;;4.10;;
50555;SDS011;36508;52.512;13.450;2023-07-24T00:17:48;3.43;;;3.30;;
50555;SDS011;36508;52.512;13.450;2023-07-24T00:20:14;4.60;;;4.30;;
50555;SDS011;36508;52.512;13.450;2023-07-24T00:22:40;4.00;;;3.73;;
50555;SDS011;36508;52.512;13.450;2023-07-24T00:25:05;4.37;;;4.07;;
50555;SDS011;36508;52.512;13.450;2023-07-24T00:27:31;3.83;;;3.60;;
50555;SDS011;36508;52.512;13.450;2023-07-24T00:29:57;4.07;;;3.43;;
50555;SDS011;36508;52.512;13.450;2023-07-24T00:32:22;3.83;;;3.63;;
50555;SDS011;36508;52.512;13.450;2023-07-24T00:34:48;4.30;;;3.67;;
50555;SDS011;36508;52.512;13.450;2023-07-24T00:37:13;4.60;;;4.30;;
50555;SDS011;36508;52.512;13.450;2023-07-24T00:39:39;4.30;;;4.00;;
50555;SDS011;36508;52.512;13.450;2023-07-24T00:42:05;3.63;;;3.43;;
50555;SDS011;36508;52.512;13.450;2023-07-24T00:44:31;5.10;;;3.43;;
50555;SDS011;36508;52.512;13.450;2023-07-24T00:46:56;3.20;;;3.03;;
50555;SDS011;36508;52.512;13.450;2023-07-24T00:49:22;4.17;;;3.93;;
50555;SDS011;36508;52.512;13.450;2023-07-24T00:51:48;4.30;;;3.90;;
50555;SDS011;36508;52.512;13.450;2023-07-24T00:54:14;3.47;;;3.27;;
50555;SDS011;36508;52.512;13.450;2023-07-24T00:56:41;3.80;;;3.50;;
50555;SDS011;36508;52.512;13.450;2023-07-24T00:59:08;3.20;;;3.00;;
50555;SDS011;36508;52.512;13.450;2023-07-24T01:01:34;4.60;;;4.30;;
50555;SDS011;36508;52.512;13.450;2023-07-24T01:04:01;4.10;;;3.80;;
50555;SDS011;36508;52.512;13.450;2023-07-24T01:06:29;3.80;;;3.50;;
50555;SDS011;36508;52.512;13.450;2023-07-24T01:08:55;3.87;;;3.63;;
50555;SDS011;36508;52.512;13.450;2023-07-24T01:11:23;4.93;;;4.53;;
50555;SDS011;36508;52.512;13.450;2023-07-24T01:13:56;4.70;;;4.40;;
50555;SDS011;36508;52.512;13.450;2023-07-24T01:16:39;4.80;;;4.40;;
50555;SDS011;36508;52.512;13.450;2023-07-24T01:27:44;4.10;;;3.90;;
50555;SDS011;36508;52.512;13.450;2023-07-24T01:30:11;4.90;;;4.33;;
50555;SDS011;36508;52.512;13.450;2023-07-24T01:32:38;4.73;;;4.33;;
50555;SDS011;36508;52.512;13.450;2023-07-24T01:35:04;5.43;;;3.77;;
50555;SDS011;36508;52.512;13.450;2023-07-24T01:37:30;5.17;;;3.83;;
50555;SDS011;36508;52.512;13.450;2023-07-24T01:39:57;3.03;;;2.90;;
50555;SDS011;36508;52.512;13.450;2023-07-24T01:42:23;3.27;;;3.00;;
50555;SDS011;36508;52.512;13.450;2023-07-24T01:44:53;4.10;;;3.80;;
50555;SDS011;36508;52.512;13.450;2023-07-24T01:47:19;3.57;;;3.27;;
50555;SDS011;36508;52.512;13.450;2023-07-24T01:49:45;4.03;;;3.73;;
50555;SDS011;36508;52.512;13.450;2023-07-24T01:52:10;4.27;;;3.90;;
50555;SDS011;36508;52.512;13.450;2023-07-24T01:54:36;3.43;;;3.27;;
50555;SDS011;36508;52.512;13.450;2023-07-24T01:57:02;4.80;;;3.60;;
50555;SDS011;36508;52.512;13.450;2023-07-24T01:59:28;3.40;;;3.20;;
50555;SDS011;36508;52.512;13.450;2023-07-24T02:01:53;4.40;;;4.10;;
50555;SDS011;36508;52.512;13.450;2023-07-24T02:04:19;3.87;;;3.67;;
50555;SDS011;36508;52.512;13.450;2023-07-24T02:06:47;4.27;;;3.97;;
50555;SDS011;36508;52.512;13.450;2023-07-24T02:09:13;3.70;;;3.50;;
50555;SDS011;36508;52.512;13.450;2023-07-24T02:11:39;3.80;;;3.60;;
50555;SDS011;36508;52.512;13.450;2023-07-24T02:14:05;5.00;;;4.10;;
50555;SDS011;36508;52.512;13.450;2023-07-24T02:16:30;4.87;;;4.53;;
50555;SDS011;36508;52.512;13.450;2023-07-24T02:18:56;4.70;;;3.63;;
50555;SDS011;36508;52.512;13.450;2023-07-24T02:21:22;4.87;;;4.60;;
50555;SDS011;36508;52.512;13.450;2023-07-24T02:23:47;4.23;;;3.93;;
50555;SDS011;36508;52.512;13.450;2023-07-24T02:26:13;4.67;;;4.33;;
50555;SDS011;36508;52.512;13.450;2023-07-24T02:28:39;3.80;;;3.60;;
50555;SDS011;36508;52.512;13.450;2023-07-24T02:31:04;3.90;;;3.70;;
50555;SDS011;36508;52.512;13.450;2023-07-24T02:33:30;4.90;;;4.50;;
50555;SDS011;36508;52.512;13.450;2023-07-24T02:35:56;4.30;;;4.00;;
50555;SDS011;36508;52.512;13.450;2023-07-24T02:38:21;6.30;;;4.07;;
50555;SDS011;36508;52.512;13.450;2023-07-24T02:40:47;3.83;;;3.63;;
50555;SDS011;36508;52.512;13.450;2023-07-24T02:43:12;3.83;;;3.53;;
50555;SDS011;36508;52.512;13.450;2023-07-24T02:45:38;4.07;;;3.80;;
50555;SDS011;36508;52.512;13.450;2023-07-24T02:48:04;4.03;;;3.80;;
50555;SDS011;36508;52.512;13.450;2023-07-24T02:50:30;4.50;;;3.80;;
50555;SDS011;36508;52.512;13.450;2023-07-24T02:52:57;3.37;;;3.10;;
50555;SDS011;36508;52.512;13.450;2023-07-24T02:55:23;3.57;;;3.37;;
50555;SDS011;36508;52.512;13.450;2023-07-24T02:57:48;4.00;;;3.63;;
50555;SDS011;36508;52.512;13.450;2023-07-24T03:00:15;3.63;;;3.33;;
50555;SDS011;36508;52.512;13.450;2023-07-24T03:02:41;4.03;;;2.83;;
50555;SDS011;36508;52.512;13.450;2023-07-24T03:05:06;4.03;;;3.50;;
50555;SDS011;36508;52.512;13.450;2023-07-24T03:07:32;3.37;;;3.17;;
50555;SDS011;36508;52.512;13.450;2023-07-24T03:09:58;3.37;;;3.17;;
50555;SDS011;36508;52.512;13.450;2023-07-24T03:12:27;3.80;;;3.50;;
50555;SDS011;36508;52.512;13.450;2023-07-24T03:14:52;3.50;;;3.30;;
50555;SDS011;36508;52.512;13.450;2023-07-24T03:17:18;3.10;;;2.90;;
50555;SDS011;36508;52.512;13.450;2023-07-24T03:19:43;3.23;;;3.10;;
50555;SDS011;36508;52.512;13.450;2023-07-24T03:22:09;2.80;;;2.60;;
50555;SDS011;36508;52.512;13.450;2023-07-24T03:24:34;4.37;;;3.97;;
50555;SDS011;36508;52.512;13.450;2023-07-24T03:27:00;3.63;;;2.83;;
50555;SDS011;36508;52.512;13.450;2023-07-24T03:29:26;2.60;;;2.40;;
50555;SDS011;36508;52.512;13.450;2023-07-24T03:31:52;2.93;;;2.73;;
50555;SDS011;36508;52.512;13.450;2023-07-24T03:34:18;4.33;;;4.00;;
50555;SDS011;36508;52.512;13.450;2023-07-24T03:36:44;3.00;;;2.80;;
50555;SDS011;36508;52.512;13.450;2023-07-24T03:39:09;2.90;;;2.70;;
50555;SDS011;36508;52.512;13.450;2023-07-24T03:41:36;5.67;;;3.30;;
50555;SDS011;36508;52.512;13.450;2023-07-24T03:44:02;3.30;;;3.10;;
50555;SDS011;36508;52.512;13.450;2023-07-24T03:46:27;2.70;;;2.50;;
50555;SDS011;36508;52.512;13.450;2023-07-24T03:48:53;2.23;;;2.13;;
50555;SDS011;36508;52.512;13.450;2023-07-24T03:51:18;2.90;;;2.17;;
50555;SDS011;36508;52.512;13.450;2023-07-24T03:53:44;3.20;;;2.73;;
50555;SDS011;36508;52.512;13.450;2023-07-24T03:56:10;2.70;;;2.60;;
50555;SDS011;36508;52.512;13.450;2023-07-24T03:58:36;2.57;;;2.47;;
50555;SDS011;36508;52.512;13.450;2023-07-24T04:01:03;2.43;;;2.30;;
50555;SDS011;36508;52.512;13.450;2023-07-24T04:03:29;2.47;;;2.17;;
50555;SDS011;36508;52.512;13.450;2023-07-24T04:05:54;2.77;;;2.57;;
50555;SDS011;36508;52.512;13.450;2023-07-24T04:08:20;3.00;;;2.80;;
50555;SDS011;36508;52.512;13.450;2023-07-24T04:10:46;2.13;;;2.03;;
50555;SDS011;36508;52.512;13.450;2023-07-24T04:13:11;1.87;;;1.77;;
50555;SDS011;36508;52.512;13.450;2023-07-24T04:15:37;2.80;;;2.60;;
50555;SDS011;36508;52.512;13.450;2023-07-24T04:18:04;2.67;;;2.47;;
50555;SDS011;36508;52.512;13.450;2023-07-24T04:20:30;2.20;;;2.10;;
50555;SDS011;36508;52.512;13.450;2023-07-24T04:22:55;1.83;;;1.73;;
50555;SDS011;36508;52.512;13.450;2023-07-24T04:25:21;2.50;;;2.30;;
50555;SDS011;36508;52.512;13.450;2023-07-24T04:27:46;2.40;;;2.20;;
50555;SDS011;36508;52.512;13.450;2023-07-24T04:30:12;3.27;;;2.47;;
50555;SDS011;36508;52.512;13.450;2023-07-24T04:32:38;2.37;;;2.27;;
50555;SDS011;36508;52.512;13.450;2023-07-24T04:35:03;3.23;;;3.00;;
50555;SDS011;36508;52.512;13.450;2023-07-24T04:37:29;2.63;;;2.40;;
50555;SDS011;36508;52.512;13.450;2023-07-24T04:39:55;2.90;;;2.50;;
50555;SDS011;36508;52.512;13.450;2023-07-24T04:42:20;2.17;;;2.07;;
50555;SDS011;36508;52.512;13.450;2023-07-24T04:44:46;2.90;;;2.67;;
50555;SDS011;36508;52.512;13.450;2023-07-24T04:47:12;1.93;;;1.80;;
50555;SDS011;36508;52.512;13.450;2023-07-24T04:49:37;3.20;;;2.47;;
50555;SDS011;36508;52.512;13.450;2023-07-24T04:52:03;3.33;;;2.73;;
50555;SDS011;36508;52.512;13.450;2023-07-24T04:54:29;2.20;;;2.10;;
50555;SDS011;36508;52.512;13.450;2023-07-24T04:56:54;2.37;;;2.27;;
50555;SDS011;36508;52.512;13.450;2023-07-24T04:59:20;2.03;;;1.90;;
50555;SDS011;36508;52.512;13.450;2023-07-24T05:01:45;3.97;;;1.90;;
50555;SDS011;36508;52.512;13.450;2023-07-24T05:04:11;2.10;;;2.00;;
50555;SDS011;36508;52.512;13.450;2023-07-24T05:06:37;4.70;;;2.03;;
50555;SDS011;36508;52.512;13.450;2023-07-24T05:09:03;3.03;;;1.90;;
50555;SDS011;36508;52.512;13.450;2023-07-24T05:11:29;2.27;;;2.07;;
50555;SDS011;36508;52.512;13.450;2023-07-24T05:13:55;2.13;;;1.70;;
50555;SDS011;36508;52.512;13.450;2023-07-24T05:16:20;2.50;;;1.93;;
50555;SDS011;36508;52.512;13.450;2023-07-24T05:18:46;2.63;;;1.70;;
50555;SDS011;36508;52.512;13.450;2023-07-24T05:21:11;2.07;;;1.97;;
50555;SDS011;36508;52.512;13.450;2023-07-24T05:23:37;2.30;;;2.17;;
50555;SDS011;36508;52.512;13.450;2023-07-24T05:26:03;1.57;;;1.47;;
50555;SDS011;36508;52.512;13.450;2023-07-24T05:28:29;2.13;;;2.03;;
50555;SDS011;36508;52.512;13.450;2023-07-24T05:30:59;2.40;;;2.30;;
50555;SDS011;36508;52.512;13.450;2023-07-24T05:33:27;2.00;;;1.90;;
50555;SDS011;36508;52.512;13.450;2023-07-24T05:35:57;1.93;;;1.83;;
50555;SDS011;36508;52.512;13.450;2023-07-24T05:38:24;1.90;;;1.80;;
50555;SDS011;36508;52.512;13.450;2023-07-24T05:40:56;2.07;;;1.80;;
50555;SDS011;36508;52.512;13.450;2023-07-24T05:43:26;2.00;;;1.90;;
50555;SDS011;36508;52.512;13.450;2023-07-24T05:45:52;2.10;;;2.00;;
50555;SDS011;36508;52.512;13.450;2023-07-24T05:48:19;2.30;;;2.10;;
50555;SDS011;36508;52.512;13.450;2023-07-24T05:50:45;2.10;;;2.00;;
50555;SDS011;36508;52.512;13.450;2023-07-24T05:53:10;4.10;;;2.60;;
50555;SDS011;36508;52.512;13.450;2023-07-24T05:55:36;2.97;;;2.27;;
50555;SDS011;36508;52.512;13.450;2023-07-24T05:58:02;1.80;;;1.70;;
50555;SDS011;36508;52.512;13.450;2023-07-24T06:00:28;1.67;;;1.57;;
50555;SDS011;36508;52.512;13.450;2023-07-24T06:02:53;1.50;;;1.40;;
50555;SDS011;36508;52.512;13.450;2023-07-24T06:05:20;2.03;;;1.93;;
50555;SDS011;36508;52.512;13.450;2023-07-24T06:07:46;2.53;;;2.43;;
50555;SDS011;36508;52.512;13.450;2023-07-24T06:10:13;2.07;;;1.97;;
50555;SDS011;36508;52.512;13.450;2023-07-24T06:12:39;1.63;;;1.53;;
50555;SDS011;36508;52.512;13.450;2023-07-24T06:15:05;2.37;;;2.27;;
50555;SDS011;36508;52.512;13.450;2023-07-24T06:17:31;2.00;;;1.90;;
50555;SDS011;36508;52.512;13.450;2023-07-24T06:19:57;2.60;;;2.40;;
50555;SDS011;36508;52.512;13.450;2023-07-24T06:22:22;1.87;;;1.77;;
50555;SDS011;36508;52.512;13.450;2023-07-24T06:24:48;2.50;;;2.40;;
50555;SDS011;36508;52.512;13.450;2023-07-24T06:27:14;1.93;;;1.83;;
50555;SDS011;36508;52.512;13.450;2023-07-24T06:29:40;2.40;;;2.30;;
50555;SDS011;36508;52.512;13.450;2023-07-24T06:32:06;2.80;;;2.60;;
50555;SDS011;36508;52.512;13.450;2023-07-24T06:34:32;3.40;;;3.20;;
50555;SDS011;36508;52.512;13.450;2023-07-24T06:36:58;2.70;;;2.60;;
50555;SDS011;36508;52.512;13.450;2023-07-24T06:39:23;3.27;;;3.17;;
50555;SDS011;36508;52.512;13.450;2023-07-24T06:41:51;2.63;;;2.53;;
50555;SDS011;36508;52.512;13.450;2023-07-24T06:44:17;2.70;;;2.60;;
50555;SDS011;36508;52.512;13.450;2023-07-24T06:46:43;3.30;;;3.10;;
50555;SDS011;36508;52.512;13.450;2023-07-24T06:49:08;3.53;;;3.20;;
50555;SDS011;36508;52.512;13.450;2023-07-24T06:51:36;3.33;;;3.10;;
50555;SDS011;36508;52.512;13.450;2023-07-24T06:54:03;3.33;;;3.13;;
50555;SDS011;36508;52.512;13.450;2023-07-24T06:56:29;4.33;;;4.03;;
50555;SDS011;36508;52.512;13.450;2023-07-24T06:58:55;2.60;;;2.40;;
50555;SDS011;36508;52.512;13.450;2023-07-24T07:01:21;2.70;;;2.60;;
50555;SDS011;36508;52.512;13.450;2023-07-24T07:03:46;5.63;;;2.90;;
50555;SDS011;36508;52.512;13.450;2023-07-24T07:06:12;7.20;;;2.50;;
50555;SDS011;36508;52.512;13.450;2023-07-24T07:08:38;2.10;;;2.00;;
50555;SDS011;36508;52.512;13.450;2023-07-24T07:11:03;2.60;;;2.50;;
50555;SDS011;36508;52.512;13.450;2023-07-24T07:13:29;3.47;;;3.27;;
50555;SDS011;36508;52.512;13.450;2023-07-24T07:15:55;3.20;;;3.00;;
50555;SDS011;36508;52.512;13.450;2023-07-24T07:18:20;2.93;;;2.83;;
50555;SDS011;36508;52.512;13.450;2023-07-24T07:20:47;3.93;;;3.47;;
50555;SDS011;36508;52.512;13.450;2023-07-24T07:23:13;2.37;;;2.27;;
50555;SDS011;36508;52.512;13.450;2023-07-24T07:25:39;2.57;;;2.47;;
50555;SDS011;36508;52.512;13.450;2023-07-24T07:28:05;2.60;;;2.50;;
50555;SDS011;36508;52.512;13.450;2023-07-24T07:30:30;3.33;;;3.13;;
50555;SDS011;36508;52.512;13.450;2023-07-24T07:32:56;2.93;;;2.83;;
50555;SDS011;36508;52.512;13.450;2023-07-24T07:35:22;2.73;;;2.63;;
50555;SDS011;36508;52.512;13.450;2023-07-24T07:37:47;3.00;;;2.80;;
50555;SDS011;36508;52.512;13.450;2023-07-24T07:40:13;2.03;;;1.93;;
50555;SDS011;36508;52.512;13.450;2023-07-24T07:42:39;2.50;;;2.40;;
50555;SDS011;36508;52.512;13.450;2023-07-24T07:45:04;2.50;;;2.40;;
50555;SDS011;36508;52.512;13.450;2023-07-24T07:47:30;2.67;;;2.40;;
50555;SDS011;36508;52.512;13.450;2023-07-24T07:49:56;2.53;;;2.43;;
50555;SDS011;36508;52.512;13.450;2023-07-24T07:52:21;4.20;;;3.80;;
50555;SDS011;36508;52.512;13.450;2023-07-24T07:54:48;2.80;;;2.60;;
50555;SDS011;36508;52.512;13.450;2023-07-24T07:57:14;3.00;;;2.90;;
50555;SDS011;36508;52.512;13.450;2023-07-24T07:59:40;2.57;;;2.47;;
50555;SDS011;36508;52.512;13.450;2023-07-24T08:02:06;3.03;;;2.83;;
50555;SDS011;36508;52.512;13.450;2023-07-24T08:04:32;3.33;;;3.13;;
50555;SDS011;36508;52.512;13.450;2023-07-24T08:06:58;3.07;;;2.97;;
50555;SDS011;36508;52.512;13.450;2023-07-24T08:09:23;3.00;;;2.90;;
50555;SDS011;36508;52.512;13.450;2023-07-24T08:11:49;3.40;;;3.10;;
50555;SDS011;36508;52.512;13.450;2023-07-24T08:14:16;2.63;;;2.50;;
50555;SDS011;36508;52.512;13.450;2023-07-24T08:16:42;3.23;;;3.03;;
50555;SDS011;36508;52.512;13.450;2023-07-24T08:19:08;2.73;;;2.63;;
50555;SDS011;36508;52.512;13.450;2023-07-24T08:21:33;3.23;;;3.00;;
50555;SDS011;36508;52.512;13.450;2023-07-24T08:23:59;1.90;;;1.80;;
50555;SDS011;36508;52.512;13.450;2023-07-24T08:26:26;2.73;;;2.53;;
50555;SDS011;36508;52.512;13.450;2023-07-24T08:28:52;2.87;;;2.77;;
50555;SDS011;36508;52.512;13.450;2023-07-24T08:31:18;2.83;;;2.73;;
50555;SDS011;36508;52.512;13.450;2023-07-24T08:33:44;3.33;;;3.13;;
50555;SDS011;36508;52.512;13.450;2023-07-24T08:36:10;2.50;;;2.30;;
50555;SDS011;36508;52.512;13.450;2023-07-24T08:38:37;2.63;;;2.43;;
50555;SDS011;36508;52.512;13.450;2023-07-24T08:41:07;3.30;;;3.10;;
50555;SDS011;36508;52.512;13.450;2023-07-24T08:43:36;2.63;;;2.53;;
50555;SDS011;36508;52.512;13.450;2023-07-24T08:46:03;6.10;;;5.57;;
50555;SDS011;36508;52.512;13.450;2023-07-24T08:48:30;4.87;;;4.57;;
50555;SDS011;36508;52.512;13.450;2023-07-24T08:51:00;4.00;;;3.70;;
50555;SDS011;36508;52.512;13.450;2023-07-24T08:53:28;6.57;;;6.07;;
50555;SDS011;36508;52.512;13.450;2023-07-24T08:55:55;3.93;;;2.73;;
50555;SDS011;36508;52.512;13.450;2023-07-24T08:58:21;5.53;;;5.03;;
50555;SDS011;36508;52.512;13.450;2023-07-24T09:00:47;2.87;;;2.67;;
50555;SDS011;36508;52.512;13.450;2023-07-24T09:03:13;5.87;;;5.27;;
50555;SDS011;36508;52.512;13.450;2023-07-24T09:05:39;2.50;;;2.40;;
50555;SDS011;36508;52.512;13.450;2023-07-24T09:08:04;2.77;;;2.57;;
50555;SDS011;36508;52.512;13.450;2023-07-24T09:10:30;5.27;;;3.67;;
50555;SDS011;36508;52.512;13.450;2023-07-24T09:12:55;3.07;;;2.97;;
50555;SDS011;36508;52.512;13.450;2023-07-24T09:15:22;2.67;;;2.57;;
50555;SDS011;36508;52.512;13.450;2023-07-24T09:17:49;2.67;;;2.50;;
50555;SDS011;36508;52.512;13.450;2023-07-24T09:20:15;3.30;;;3.10;;
50555;SDS011;36508;52.512;13.450;2023-07-24T09:22:48;2.87;;;2.57;;
50555;SDS011;36508;52.512;13.450;2023-07-24T09:25:15;2.70;;;2.50;;
50555;SDS011;36508;52.512;13.450;2023-07-24T09:27:41;2.70;;;2.60;;
50555;SDS011;36508;52.512;13.450;2023-07-24T09:30:13;2.60;;;2.50;;
50555;SDS011;36508;52.512;13.450;2023-07-24T09:32:39;2.80;;;2.60;;
50555;SDS011;36508;52.512;13.450;2023-07-24T09:35:15;3.07;;;2.77;;
50555;SDS011;36508;52.512;13.450;2023-07-24T09:37:45;2.87;;;2.67;;
50555;SDS011;36508;52.512;13.450;2023-07-24T09:40:11;3.40;;;3.20;;
50555;SDS011;36508;52.512;13.450;2023-07-24T09:42:39;4.30;;;3.03;;
50555;SDS011;36508;52.512;13.450;2023-07-24T09:45:07;3.80;;;3.47;;
50555;SDS011;36508;52.512;13.450;2023-07-24T09:47:34;3.20;;;2.97;;
50555;SDS011;36508;52.512;13.450;2023-07-24T09:50:02;3.37;;;3.10;;
50555;SDS011;36508;52.512;13.450;2023-07-24T09:52:29;2.07;;;1.97;;
50555;SDS011;36508;52.512;13.450;2023-07-24T09:57:35;2.83;;;2.63;;
50555;SDS011;36508;52.512;13.450;2023-07-24T10:00:01;3.13;;;3.00;;
50555;SDS011;36508;52.512;13.450;2023-07-24T10:02:27;3.30;;;3.10;;
50555;SDS011;36508;52.512;13.450;2023-07-24T10:04:53;3.30;;;3.10;;
50555;SDS011;36508;52.512;13.450;2023-07-24T10:07:22;2.90;;;2.70;;
50555;SDS011;36508;52.512;13.450;2023-07-24T10:09:49;2.57;;;2.47;;
50555;SDS011;36508;52.512;13.450;2023-07-24T10:12:16;3.13;;;2.83;;
50555;SDS011;36508;52.512;13.450;2023-07-24T10:14:44;3.20;;;3.00;;
50555;SDS011;36508;52.512;13.450;2023-07-24T10:17:13;2.83;;;2.73;;
50555;SDS011;36508;52.512;13.450;2023-07-24T10:19:41;3.17;;;2.97;;
50555;SDS011;36508;52.512;13.450;2023-07-24T10:22:08;3.70;;;3.10;;
50555;SDS011;36508;52.512;13.450;2023-07-24T10:24:41;5.03;;;3.50;;
50555;SDS011;36508;52.512;13.450;2023-07-24T10:27:07;3.97;;;3.53;;
50555;SDS011;36508;52.512;13.450;2023-07-24T10:29:35;3.43;;;3.13;;
50555;SDS011;36508;52.512;13.450;2023-07-24T10:32:02;4.30;;;4.10;;
50555;SDS011;36508;52.512;13.450;2023-07-24T10:34:40;4.87;;;3.93;;
50555;SDS011;36508;52.512;13.450;2023-07-24T10:37:08;4.27;;;3.97;;
50555;SDS011;36508;52.512;13.450;2023-07-24T10:39:41;3.90;;;3.60;;
50555;SDS011;36508;52.512;13.450;2023-07-24T10:42:10;4.77;;;4.37;;
50555;SDS011;36508;52.512;13.450;2023-07-24T10:44:36;5.53;;;5.20;;
50555;SDS011;36508;52.512;13.450;2023-07-24T10:47:02;4.80;;;4.50;;
50555;SDS011;36508;52.512;13.450;2023-07-24T10:49:28;4.50;;;4.20;;
50555;SDS011;36508;52.512;13.450;2023-07-24T10:51:57;5.33;;;5.03;;
50555;SDS011;36508;52.512;13.450;2023-07-24T10:54:23;4.53;;;4.20;;
50555;SDS011;36508;52.512;13.450;2023-07-24T10:56:49;4.97;;;4.67;;
50555;SDS011;36508;52.512;13.450;2023-07-24T10:59:15;4.73;;;4.43;;
50555;SDS011;36508;52.512;13.450;2023-07-24T11:01:40;6.20;;;5.80;;
50555;SDS011;36508;52.512;13.450;2023-07-24T11:04:07;6.77;;;6.27;;
50555;SDS011;36508;52.512;13.450;2023-07-24T11:06:33;5.90;;;5.50;;
50555;SDS011;36508;52.512;13.450;2023-07-24T11:08:59;5.17;;;4.87;;
50555;SDS011;36508;52.512;13.450;2023-07-24T11:11:32;8.30;;;7.70;;
50555;SDS011;36508;52.512;13.450;2023-07-24T11:13:59;6.07;;;5.40;;
50555;SDS011;36508;52.512;13.450;2023-07-24T11:16:26;4.43;;;4.20;;
50555;SDS011;36508;52.512;13.450;2023-07-24T11:18:52;6.33;;;5.90;;
50555;SDS011;36508;52.512;13.450;2023-07-24T11:21:18;6.37;;;5.83;;
50555;SDS011;36508;52.512;13.450;2023-07-24T11:24:06;5.23;;;4.93;;
50555;SDS011;36508;52.512;13.450;2023-07-24T11:26:34;6.00;;;5.60;;
50555;SDS011;36508;52.512;13.450;2023-07-24T11:28:59;5.70;;;5.27;;
50555;SDS011;36508;52.512;13.450;2023-07-24T11:31:25;7.13;;;6.60;;
50555;SDS011;36508;52.512;13.450;2023-07-24T11:33:51;5.40;;;5.10;;
50555;SDS011;36508;52.512;13.450;2023-07-24T11:36:17;5.10;;;4.80;;
50555;SDS011;36508;52.512;13.450;2023-07-24T11:38:47;6.03;;;5.63;;
50555;SDS011;36508;52.512;13.450;2023-07-24T11:41:13;5.23;;;4.93;;
50555;SDS011;36508;52.512;13.450;2023-07-24T11:43:47;6.33;;;5.93;;
50555;SDS011;36508;52.512;13.450;2023-07-24T11:46:26;6.63;;;6.13;;
50555;SDS011;36508;52.512;13.450;2023-07-24T11:48:53;5.70;;;5.33;;
50555;SDS011;36508;52.512;13.450;2023-07-24T11:51:21;6.10;;;5.60;;
50555;SDS011;36508;52.512;13.450;2023-07-24T11:53:49;6.60;;;6.20;;
50555;SDS011;36508;52.512;13.450;2023-07-24T11:56:15;6.93;;;6.23;;
50555;SDS011;36508;52.512;13.450;2023-07-24T11:58:42;6.43;;;5.50;;
50555;SDS011;36508;52.512;13.450;2023-07-24T12:01:08;7.10;;;6.10;;
50555;SDS011;36508;52.512;13.450;2023-07-24T12:03:33;5.13;;;4.87;;
50555;SDS011;36508;52.512;13.450;2023-07-24T12:06:00;5.53;;;5.13;;
50555;SDS011;36508;52.512;13.450;2023-07-24T12:08:31;5.70;;;5.30;;
50555;SDS011;36508;52.512;13.450;2023-07-24T12:10:58;6.53;;;6.03;;
50555;SDS011;36508;52.512;13.450;2023-07-24T12:13:24;8.23;;;5.47;;
50555;SDS011;36508;52.512;13.450;2023-07-24T12:15:49;6.20;;;5.60;;
50555;SDS011;36508;52.512;13.450;2023-07-24T12:18:15;5.80;;;5.50;;
50555;SDS011;36508;52.512;13.450;2023-07-24T12:20:41;10.63;;;7.10;;
50555;SDS011;36508;52.512;13.450;2023-07-24T12:23:06;7.33;;;6.70;;
50555;SDS011;36508;52.512;13.450;2023-07-24T12:25:32;6.30;;;5.10;;
50555;SDS011;36508;52.512;13.450;2023-07-24T12:27:57;7.87;;;4.70;;
50555;SDS011;36508;52.512;13.450;2023-07-24T12:30:23;8.90;;;5.93;;
50555;SDS011;36508;52.512;13.450;2023-07-24T12:32:49;7.00;;;5.37;;
50555;SDS011;36508;52.512;13.450;2023-07-24T12:35:15;6.53;;;5.80;;
50555;SDS011;36508;52.512;13.450;2023-07-24T12:37:41;7.73;;;5.80;;
50555;SDS011;36508;52.512;13.450;2023-07-24T12:40:07;9.87;;;5.53;;
50555;SDS011;36508;52.512;13.450;2023-07-24T12:42:33;6.23;;;5.67;;
50555;SDS011;36508;52.512;13.450;2023-07-24T12:44:59;4.73;;;4.40;;
50555;SDS011;36508;52.512;13.450;2023-07-24T12:47:27;5.17;;;4.77;;
50555;SDS011;36508;52.512;13.450;2023-07-24T12:49:53;16.70;;;6.17;;
50555;SDS011;36508;52.512;13.450;2023-07-24T12:52:20;6.87;;;6.13;;
50555;SDS011;36508;52.512;13.450;2023-07-24T12:54:46;7.17;;;4.60;;
50555;SDS011;36508;52.512;13.450;2023-07-24T12:57:11;5.87;;;5.27;;
50555;SDS011;36508;52.512;13.450;2023-07-24T12:59:37;5.57;;;5.03;;
50555;SDS011;36508;52.512;13.450;2023-07-24T13:02:03;4.30;;;4.00;;
50555;SDS011;36508;52.512;13.450;2023-07-24T13:04:28;5.00;;;4.70;;
50555;SDS011;36508;52.512;13.450;2023-07-24T13:06:54;6.03;;;4.70;;
50555;SDS011;36508;52.512;13.450;2023-07-24T13:09:20;5.00;;;4.60;;
50555;SDS011;36508;52.512;13.450;2023-07-24T13:11:45;3.97;;;3.77;;
50555;SDS011;36508;52.512;13.450;2023-07-24T13:14:16;4.13;;;3.67;;
50555;SDS011;36508;52.512;13.450;2023-07-24T13:16:41;4.30;;;4.00;;
50555;SDS011;36508;52.512;13.450;2023-07-24T13:19:07;5.70;;;4.57;;
50555;SDS011;36508;52.512;13.450;2023-07-24T13:21:32;8.00;;;4.10;;
50555;SDS011;36508;52.512;13.450;2023-07-24T13:23:58;4.53;;;4.23;;
50555;SDS011;36508;52.512;13.450;2023-07-24T13:26:24;5.27;;;4.97;;
50555;SDS011;36508;52.512;13.450;2023-07-24T13:28:49;6.47;;;4.27;;
50555;SDS011;36508;52.512;13.450;2023-07-24T13:31:16;5.57;;;4.63;;
50555;SDS011;36508;52.512;13.450;2023-07-24T13:33:45;4.57;;;4.27;;
50555;SDS011;36508;52.512;13.450;2023-07-24T13:36:11;5.90;;;4.30;;
50555;SDS011;36508;52.512;13.450;2023-07-24T13:38:37;4.63;;;4.33;;
50555;SDS011;36508;52.512;13.450;2023-07-24T13:41:03;5.87;;;4.57;;
50555;SDS011;36508;52.512;13.450;2023-07-24T13:43:32;4.30;;;4.00;;
50555;SDS011;36508;52.512;13.450;2023-07-24T13:45:58;6.40;;;5.93;;
50555;SDS011;36508;52.512;13.450;2023-07-24T13:48:24;5.67;;;4.20;;
50555;SDS011;36508;52.512;13.450;2023-07-24T13:50:52;5.10;;;4.63;;
50555;SDS011;36508;52.512;13.450;2023-07-24T13:53:20;5.67;;;5.20;;
50555;SDS011;36508;52.512;13.450;2023-07-24T13:55:46;4.80;;;4.50;;
50555;SDS011;36508;52.512;13.450;2023-07-24T13:58:12;6.50;;;6.10;;
50555;SDS011;36508;52.512;13.450;2023-07-24T14:00:38;6.00;;;5.50;;
50555;SDS011;36508;52.512;13.450;2023-07-24T14:03:03;4.57;;;4.20;;
50555;SDS011;36508;52.512;13.450;2023-07-24T14:05:29;5.93;;;5.53;;
50555;SDS011;36508;52.512;13.450;2023-07-24T14:07:55;5.00;;;4.70;;
50555;SDS011;36508;52.512;13.450;2023-07-24T14:10:20;5.57;;;5.13;;
50555;SDS011;36508;52.512;13.450;2023-07-24T14:12:46;5.87;;;5.47;;
50555;SDS011;36508;52.512;13.450;2023-07-24T14:15:11;6.10;;;5.50;;
50555;SDS011;36508;52.512;13.450;2023-07-24T14:17:37;5.50;;;5.20;;
50555;SDS011;36508;52.512;13.450;2023-07-24T14:20:03;5.77;;;5.37;;
50555;SDS011;36508;52.512;13.450;2023-07-24T14:22:30;6.10;;;5.60;;
50555;SDS011;36508;52.512;13.450;2023-07-24T14:24:55;6.53;;;6.13;;
50555;SDS011;36508;52.512;13.450;2023-07-24T14:27:21;6.10;;;5.67;;
50555;SDS011;36508;52.512;13.450;2023-07-24T14:29:46;4.70;;;4.30;;
50555;SDS011;36508;52.512;13.450;2023-07-24T14:32:12;5.30;;;4.87;;
50555;SDS011;36508;52.512;13.450;2023-07-24T14:34:37;5.70;;;5.30;;
50555;SDS011;36508;52.512;13.450;2023-07-24T14:37:03;11.30;;;6.63;;
50555;SDS011;36508;52.512;13.450;2023-07-24T14:39:29;5.20;;;4.80;;